Bloomville, South Carolina
Current Conditions -  °F | °C
As of 11:15 AM on Wednesday 28 Jan 2015 (Local Time) from KMNI Reporting Station
Clear Clear  
Wind Chill: 35°   Ceiling: Unl
Heat Index: 41°   Visibility: 10mi
Dew Point: 19°   Wind: 10mph
Humidity: 42%   Direction: 360°N
Pressure: 30.28"   Gusts: NA
Location:  33.6434°N, 80.1966°W
Report Text: KMNI 281615Z AUTO 36009KT 10SM CLR 05/M07 A3028 RMK AO2
Loading
Personal Weather Stations






























Interactive Weather Map New forecast layout! Learn more

10-Day Weather Forecast

Advertisements
Track Severe Weather on mobile